Time;durP1;ratioP1;P1;durP2;ratioP2;P2;SDS_P1;SDS_P2;PMS_P1;PMS_P2;Temp;Humidity;BMP_temperature;BMP_pressure;BME280_temperature;BME280_humidity;BME280_pressure;Samples;Min_cycle;Max_cycle;Signal;HPM_P1;HPM_P2
2023/07/14 00:00:25;;;;;;;4.15;2.95;;;27.20;1.00;;;;;;5032306;28;20098;-67
2023/07/14 00:02:52;;;;;;;4.47;3.03;;;27.20;1.00;;;;;;5033218;28;20045;-67
2023/07/14 00:05:22;;;;;;;4.28;2.95;;;27.20;1.00;;;;;;5030964;28;20037;-67
2023/07/14 00:07:49;;;;;;;4.30;3.30;;;27.10;1.00;;;;;;5030758;28;20022;-67
2023/07/14 00:10:35;;;;;;;6.80;3.40;;;27.10;1.00;;;;;;5030706;28;20036;-67
2023/07/14 00:13:03;;;;;;;6.25;3.25;;;27.20;1.00;;;;;;5032325;28;20144;-67
2023/07/14 00:15:35;;;;;;;6.20;3.72;;;27.20;1.00;;;;;;5033026;28;20390;-68
2023/07/14 00:18:16;;;;;;;3.55;3.00;;;27.20;1.00;;;;;;5032021;28;20096;-68
2023/07/14 00:20:42;;;;;;;5.72;3.65;;;27.10;1.00;;;;;;5031045;28;20029;-68
2023/07/14 00:23:12;;;;;;;5.05;3.60;;;27.00;1.00;;;;;;5031784;28;20021;-67
2023/07/14 00:25:38;;;;;;;6.03;3.33;;;27.00;1.00;;;;;;5031684;28;20037;-67
2023/07/14 00:28:13;;;;;;;5.38;3.70;;;26.90;1.00;;;;;;5032318;28;20053;-67
2023/07/14 00:30:39;;;;;;;5.30;3.45;;;26.80;1.00;;;;;;5023111;28;20119;-68
2023/07/14 00:33:13;;;;;;;5.38;3.72;;;26.70;1.00;;;;;;5030844;28;20033;-67
2023/07/14 00:35:39;;;;;;;7.15;3.78;;;26.70;1.00;;;;;;5027099;28;20040;-67
2023/07/14 00:38:05;;;;;;;4.07;3.67;;;26.80;1.00;;;;;;5029871;28;20033;-67
2023/07/14 00:40:36;;;;;;;5.38;3.58;;;26.80;1.00;;;;;;5031525;28;20021;-67
2023/07/14 00:43:04;;;;;;;5.10;3.78;;;26.60;1.00;;;;;;5032155;28;20500;-67
2023/07/14 00:45:32;;;;;;;5.18;4.00;;;26.70;1.00;;;;;;5032588;28;20033;-67
2023/07/14 00:48:04;;;;;;;6.78;4.10;;;26.40;1.00;;;;;;5032424;28;20155;-67
2023/07/14 00:50:48;;;;;;;5.78;3.42;;;26.40;1.00;;;;;;5032518;28;20040;-67
2023/07/14 00:53:46;;;;;;;4.13;3.72;;;26.50;1.00;;;;;;5029304;28;20034;-67
2023/07/14 00:56:15;;;;;;;6.10;3.60;;;26.40;1.00;;;;;;5028883;28;20042;-67
2023/07/14 00:58:45;;;;;;;5.50;3.80;;;26.40;1.00;;;;;;5031449;28;20061;-67
2023/07/14 01:01:22;;;;;;;11.18;3.63;;;26.40;1.00;;;;;;5032410;28;20116;-67
2023/07/14 01:03:51;;;;;;;4.35;3.35;;;26.50;1.00;;;;;;5030902;28;20060;-67
2023/07/14 01:06:40;;;;;;;6.65;2.95;;;26.50;1.00;;;;;;5029387;28;21692;-67
2023/07/14 01:09:12;;;;;;;4.47;3.22;;;26.50;1.00;;;;;;5031294;28;20009;-67
2023/07/14 01:11:47;;;;;;;6.50;3.35;;;26.50;1.00;;;;;;5031856;28;20030;-67
2023/07/14 01:14:23;;;;;;;3.42;3.10;;;26.60;1.00;;;;;;5032765;28;20032;-67
2023/07/14 01:16:51;;;;;;;4.50;2.33;;;26.60;1.00;;;;;;5031888;28;20053;-67
2023/07/14 01:19:40;;;;;;;3.90;2.78;;;26.60;1.00;;;;;;5032307;28;20018;-67
2023/07/14 01:22:24;;;;;;;4.32;2.88;;;26.50;1.00;;;;;;5032502;28;20395;-67
2023/07/14 01:24:58;;;;;;;;;;;26.60;1.00;;;;;;5022593;28;20049;-66
2023/07/14 01:27:24;;;;;;;3.63;2.83;;;26.50;1.00;;;;;;5033851;28;19960;-66
2023/07/14 01:29:51;;;;;;;5.03;3.17;;;26.60;1.00;;;;;;5034526;28;20053;-67
2023/07/14 01:32:19;;;;;;;3.60;2.90;;;26.60;1.00;;;;;;5036185;28;20091;-67
2023/07/14 01:34:45;;;;;;;2.97;2.78;;;26.60;1.00;;;;;;5033174;28;20033;-67
2023/07/14 01:37:14;;;;;;;4.32;2.72;;;26.60;1.00;;;;;;5031731;28;20048;-67
2023/07/14 01:39:40;;;;;;;6.57;3.42;;;26.60;1.00;;;;;;5035828;28;20514;-67
2023/07/14 01:42:06;;;;;;;5.10;2.70;;;26.60;1.00;;;;;;5034180;28;20014;-67
2023/07/14 01:44:33;;;;;;;5.78;3.03;;;26.60;1.00;;;;;;5035132;28;20136;-67
2023/07/14 01:47:00;;;;;;;5.53;2.80;;;26.60;1.00;;;;;;5033335;28;20060;-66
2023/07/14 01:49:46;;;;;;;4.15;2.90;;;26.60;1.00;;;;;;5035795;28;20112;-66
2023/07/14 01:52:27;;;;;;;3.63;3.05;;;26.60;1.00;;;;;;5023973;28;20406;-66
2023/07/14 01:55:00;;;;;;;5.57;3.20;;;26.50;1.00;;;;;;5034109;28;20386;-66
2023/07/14 01:57:27;;;;;;;3.88;2.97;;;26.40;1.00;;;;;;5034501;28;20043;-66
2023/07/14 02:00:11;;;;;;;5.70;3.20;;;26.30;1.00;;;;;;5034728;28;20033;-66
2023/07/14 02:02:38;;;;;;;5.13;3.15;;;26.30;1.00;;;;;;5035016;28;20411;-66
2023/07/14 02:05:33;;;;;;;4.43;3.75;;;26.30;1.00;;;;;;5035256;28;20434;-66
2023/07/14 02:08:02;;;;;;;6.45;3.40;;;26.10;1.00;;;;;;5033010;28;20399;-66
2023/07/14 02:10:28;;;;;;;5.38;3.28;;;26.10;1.00;;;;;;5033283;28;20022;-66
2023/07/14 02:12:54;;;;;;;7.57;3.40;;;26.10;1.00;;;;;;5035388;28;20040;-66
2023/07/14 02:15:29;;;;;;;4.07;3.03;;;26.10;1.00;;;;;;5032938;28;20122;-66
2023/07/14 02:17:55;;;;;;;5.22;3.50;;;26.20;1.00;;;;;;5035131;28;20061;-66
2023/07/14 02:20:30;;;;;;;4.28;3.58;;;26.30;1.00;;;;;;5034232;28;20497;-66
2023/07/14 02:22:59;;;;;;;4.28;3.88;;;26.30;1.00;;;;;;5034963;28;20494;-66
2023/07/14 02:25:30;;;;;;;3.85;2.80;;;26.20;1.00;;;;;;5034375;28;20034;-66
2023/07/14 02:27:56;;;;;;;5.55;3.15;;;26.00;1.00;;;;;;5031088;28;20391;-66
2023/07/14 02:30:23;;;;;;;4.55;2.80;;;26.00;1.00;;;;;;5034068;28;20030;-66
2023/07/14 02:32:55;;;;;;;4.85;2.92;;;26.00;1.00;;;;;;5034034;28;20540;-66
2023/07/14 02:35:33;;;;;;;4.95;3.15;;;25.90;1.00;;;;;;5026441;28;20029;-66
2023/07/14 02:38:10;;;;;;;2.80;2.60;;;25.90;1.00;;;;;;5015348;28;20026;-66
2023/07/14 02:40:51;;;;;;;5.45;3.15;;;26.00;1.00;;;;;;5028171;28;20053;-66
2023/07/14 02:43:19;;;;;;;3.50;2.80;;;26.10;1.00;;;;;;5029731;28;20383;-66
2023/07/14 02:45:54;;;;;;;5.93;2.88;;;26.10;1.00;;;;;;5031109;28;20052;-66
2023/07/14 02:48:32;;;;;;;4.63;2.47;;;25.90;1.00;;;;;;5034982;28;20067;-66
2023/07/14 02:50:58;;;;;;;4.53;2.67;;;25.90;1.00;;;;;;5033531;28;20079;-66
2023/07/14 02:53:24;;;;;;;3.85;2.38;;;25.80;1.00;;;;;;5034553;28;20033;-66
2023/07/14 02:55:50;;;;;;;4.65;2.15;;;25.80;1.00;;;;;;5033577;28;20061;-66
2023/07/14 02:58:17;;;;;;;2.95;2.67;;;25.80;1.00;;;;;;5033073;28;20061;-66
2023/07/14 03:00:43;;;;;;;3.05;2.50;;;25.80;1.00;;;;;;5030773;28;20060;-66
2023/07/14 03:03:09;;;;;;;6.55;2.75;;;25.80;1.00;;;;;;5033466;28;20033;-66
2023/07/14 03:05:35;;;;;;;4.68;3.13;;;25.80;1.00;;;;;;5034228;28;20080;-66
2023/07/14 03:08:01;;;;;;;4.70;2.60;;;25.70;1.00;;;;;;5032377;28;20049;-66
2023/07/14 03:10:27;;;;;;;3.83;2.22;;;25.80;1.00;;;;;;5033346;28;20072;-66
2023/07/14 03:12:53;;;;;;;4.50;2.63;;;25.90;1.00;;;;;;5033188;28;20395;-66
2023/07/14 03:15:20;;;;;;;3.10;2.40;;;25.80;1.00;;;;;;5034054;28;20036;-66
2023/07/14 03:17:46;;;;;;;3.50;2.13;;;25.80;1.00;;;;;;5031790;28;20013;-66
2023/07/14 03:20:14;;;;;;;2.72;2.35;;;25.80;1.00;;;;;;5033351;28;20072;-66
2023/07/14 03:22:39;;;;;;;2.55;2.35;;;25.90;1.00;;;;;;5033914;28;20025;-66
2023/07/14 03:25:06;;;;;;;4.78;2.38;;;25.90;1.00;;;;;;5033817;28;20087;-66
2023/07/14 03:27:32;;;;;;;2.97;2.60;;;25.80;1.00;;;;;;5031187;28;20021;-66
2023/07/14 03:29:58;;;;;;;3.78;2.22;;;25.90;1.00;;;;;;5032839;28;20113;-66
2023/07/14 03:32:23;;;;;;;2.25;2.05;;;25.90;1.00;;;;;;5033878;28;20490;-66
2023/07/14 03:34:49;;;;;;;4.38;2.70;;;25.80;1.00;;;;;;5031886;28;20025;-66
2023/07/14 03:37:15;;;;;;;4.60;2.47;;;25.80;1.00;;;;;;5032705;28;20348;-66
2023/07/14 03:39:41;;;;;;;4.50;2.40;;;25.80;1.00;;;;;;5031845;28;20463;-66
2023/07/14 03:42:06;;;;;;;4.75;2.90;;;25.80;1.00;;;;;;5031834;28;20038;-66
2023/07/14 03:44:32;;;;;;;3.47;2.38;;;25.90;1.00;;;;;;5033393;28;20025;-66
2023/07/14 03:46:59;;;;;;;5.93;2.95;;;25.80;1.00;;;;;;5031002;28;20092;-66
2023/07/14 03:49:25;;;;;;;4.05;2.50;;;25.80;1.00;;;;;;5033684;28;20116;-66
2023/07/14 03:51:52;;;;;;;4.13;2.58;;;25.80;1.00;;;;;;5032590;28;20037;-66
2023/07/14 03:54:18;;;;;;;3.55;2.67;;;25.80;1.00;;;;;;5032545;28;20029;-66
2023/07/14 03:56:44;;;;;;;3.92;2.65;;;25.80;1.00;;;;;;5029791;28;20138;-66
2023/07/14 03:59:10;;;;;;;4.68;2.55;;;25.80;1.00;;;;;;5033024;28;20099;-66
2023/07/14 04:01:36;;;;;;;4.82;2.70;;;25.80;1.00;;;;;;5032542;28;20033;-66
2023/07/14 04:04:02;;;;;;;5.20;2.47;;;25.80;1.00;;;;;;5033582;28;20108;-66
2023/07/14 04:06:28;;;;;;;3.38;2.60;;;25.90;1.00;;;;;;5031528;28;20551;-66
2023/07/14 04:08:58;;;;;;;6.10;2.50;;;26.00;1.00;;;;;;5031871;28;20033;-66
2023/07/14 04:11:23;;;;;;;3.90;2.40;;;25.90;1.00;;;;;;5032396;28;20029;-66
2023/07/14 04:13:49;;;;;;;3.75;2.40;;;25.90;1.00;;;;;;5033334;28;20525;-66
2023/07/14 04:16:15;;;;;;;3.58;2.45;;;25.90;1.00;;;;;;5031909;28;20565;-66
2023/07/14 04:18:40;;;;;;;4.18;2.50;;;26.00;1.00;;;;;;5033078;28;20034;-66
2023/07/14 04:21:09;;;;;;;4.85;2.75;;;25.80;1.00;;;;;;5032968;28;20079;-66
2023/07/14 04:23:35;;;;;;;3.13;2.83;;;25.80;1.00;;;;;;5031261;28;20602;-66
2023/07/14 04:26:02;;;;;;;5.40;3.13;;;25.80;1.00;;;;;;5030838;28;20483;-66
2023/07/14 04:28:28;;;;;;;4.47;2.42;;;25.80;1.00;;;;;;5032322;28;20076;-66
2023/07/14 04:30:58;;;;;;;4.05;2.65;;;25.80;1.00;;;;;;5032888;28;20053;-66
2023/07/14 04:33:24;;;;;;;3.38;2.22;;;25.80;1.00;;;;;;5032326;28;20025;-66
2023/07/14 04:35:51;;;;;;;5.93;2.90;;;25.90;1.00;;;;;;5032605;28;20042;-67
2023/07/14 04:38:18;;;;;;;2.53;2.33;;;25.90;1.00;;;;;;5030949;28;20021;-66
2023/07/14 04:40:45;;;;;;;5.50;2.50;;;25.90;1.00;;;;;;5031925;28;20124;-66
2023/07/14 04:43:12;;;;;;;6.03;3.05;;;25.90;1.00;;;;;;5032123;28;20036;-66
2023/07/14 04:45:41;;;;;;;4.40;2.10;;;25.90;1.00;;;;;;5031783;28;20406;-66
2023/07/14 04:48:11;;;;;;;5.47;2.72;;;25.90;1.00;;;;;;5029750;28;20052;-66
2023/07/14 04:50:37;;;;;;;4.07;2.63;;;26.00;1.00;;;;;;5032981;28;20041;-66
2023/07/14 04:53:05;;;;;;;4.22;2.58;;;26.00;1.00;;;;;;5029120;28;20594;-66
2023/07/14 04:55:38;;;;;;;6.68;3.10;;;26.00;1.00;;;;;;5033356;28;20124;-66
2023/07/14 04:58:04;;;;;;;4.00;3.03;;;26.00;1.00;;;;;;5034440;28;20042;-66
2023/07/14 05:00:31;;;;;;;6.60;2.78;;;26.00;1.00;;;;;;5036318;28;20693;-66
2023/07/14 05:02:57;;;;;;;5.45;2.30;;;26.10;1.00;;;;;;5036869;28;20036;-66
2023/07/14 05:05:24;;;;;;;5.53;2.58;;;26.10;1.00;;;;;;5035465;28;20029;-67
2023/07/14 05:07:52;;;;;;;5.30;2.95;;;26.10;1.00;;;;;;5035447;28;20105;-66
2023/07/14 05:10:20;;;;;;;5.72;2.42;;;26.10;1.00;;;;;;5035496;28;20021;-66
2023/07/14 05:12:51;;;;;;;6.13;2.58;;;26.10;1.00;;;;;;5034529;28;20030;-66
2023/07/14 05:15:16;;;;;;;5.95;2.63;;;26.10;1.00;;;;;;5034125;28;20063;-68
2023/07/14 05:17:42;;;;;;;3.42;1.92;;;26.10;1.00;;;;;;5036799;28;20037;-68
2023/07/14 05:20:13;;;;;;;5.50;2.63;;;26.00;1.00;;;;;;5036292;28;20032;-68
2023/07/14 05:22:40;;;;;;;3.40;2.42;;;25.90;1.00;;;;;;5034664;28;20029;-68
2023/07/14 05:25:06;;;;;;;3.88;2.58;;;26.10;1.00;;;;;;5035633;28;20029;-68
2023/07/14 05:27:32;;;;;;;7.78;3.17;;;26.10;1.00;;;;;;5033217;28;20076;-68
2023/07/14 05:29:58;;;;;;;5.85;2.42;;;26.20;1.00;;;;;;5023445;28;20045;-67
2023/07/14 05:32:24;;;;;;;4.00;2.60;;;26.20;1.00;;;;;;5034545;28;20033;-67
2023/07/14 05:34:51;;;;;;;3.05;2.55;;;26.20;1.00;;;;;;5033568;28;20032;-67
2023/07/14 05:37:18;;;;;;;6.10;2.80;;;26.40;1.00;;;;;;5034229;28;20487;-67
2023/07/14 05:39:44;;;;;;;5.82;2.70;;;26.30;1.00;;;;;;5026405;28;20139;-67
2023/07/14 05:42:10;;;;;;;4.47;2.95;;;26.30;1.00;;;;;;5035763;28;20079;-67
2023/07/14 05:44:36;;;;;;;6.03;3.13;;;26.40;1.00;;;;;;5032669;28;20018;-67
2023/07/14 05:47:02;;;;;;;3.85;2.63;;;26.30;1.00;;;;;;5033923;28;20029;-67
2023/07/14 05:49:27;;;;;;;4.65;2.72;;;26.30;1.00;;;;;;5034770;28;20443;-67
2023/07/14 05:51:54;;;;;;;3.33;2.60;;;26.40;1.00;;;;;;5034545;28;20122;-68
2023/07/14 05:54:24;;;;;;;5.65;2.70;;;26.50;1.00;;;;;;5035646;28;20036;-67
2023/07/14 05:56:50;;;;;;;4.03;2.58;;;26.70;1.00;;;;;;5034920;28;20025;-67
2023/07/14 05:59:16;;;;;;;4.30;2.58;;;26.50;1.00;;;;;;5034094;28;20041;-67
2023/07/14 06:01:42;;;;;;;3.38;2.58;;;26.60;1.00;;;;;;5034510;28;20474;-67
2023/07/14 06:04:09;;;;;;;5.22;2.83;;;26.50;1.00;;;;;;5033957;28;20022;-67
2023/07/14 06:06:34;;;;;;;4.40;2.70;;;26.50;1.00;;;;;;5032937;28;20041;-66
2023/07/14 06:09:01;;;;;;;3.75;3.10;;;26.40;1.00;;;;;;5033602;28;20018;-67
2023/07/14 06:11:27;;;;;;;4.63;2.90;;;26.40;1.00;;;;;;5035197;28;20083;-67
2023/07/14 06:13:54;;;;;;;3.47;2.55;;;26.50;1.00;;;;;;5034498;28;20030;-67
2023/07/14 06:16:22;;;;;;;7.68;2.78;;;26.50;1.00;;;;;;5032257;28;20033;-66
2023/07/14 06:18:52;;;;;;;4.70;2.97;;;26.60;99.90;;;;;;5035076;28;20018;-67
2023/07/14 06:21:18;;;;;;;4.65;2.25;;;26.40;99.90;;;;;;5032141;28;20034;-67
2023/07/14 06:23:44;;;;;;;4.47;2.58;;;26.60;1.00;;;;;;5034143;28;20110;-67
2023/07/14 06:26:10;;;;;;;5.03;2.60;;;26.50;99.90;;;;;;5033913;28;20072;-67
2023/07/14 06:28:36;;;;;;;5.82;2.85;;;26.60;99.90;;;;;;5026958;28;20105;-67
2023/07/14 06:31:04;;;;;;;5.88;2.35;;;26.60;99.90;;;;;;5034833;28;20025;-67
2023/07/14 06:33:31;;;;;;;3.00;2.50;;;26.50;99.90;;;;;;5032963;28;20481;-67
2023/07/14 06:35:57;;;;;;;3.30;2.50;;;26.70;99.90;;;;;;5033872;28;20475;-67
2023/07/14 06:38:23;;;;;;;4.45;2.55;;;26.70;99.90;;;;;;5031705;28;20014;-67
2023/07/14 06:41:00;;;;;;;7.13;2.90;;;26.70;99.90;;;;;;5034328;28;20041;-67
2023/07/14 06:43:26;;;;;;;5.13;2.97;;;26.60;99.90;;;;;;5033623;28;20045;-67
2023/07/14 06:45:53;;;;;;;4.57;3.00;;;26.60;99.90;;;;;;5033444;28;20555;-67
2023/07/14 06:48:18;;;;;;;7.63;4.00;;;26.40;1.00;;;;;;5034354;28;20483;-67
2023/07/14 06:50:47;;;;;;;5.70;3.20;;;26.50;99.90;;;;;;5033349;28;20029;-67
2023/07/14 06:53:13;;;;;;;10.63;3.15;;;26.70;99.90;;;;;;5034161;28;20071;-67
2023/07/14 06:55:40;;;;;;;6.40;3.13;;;27.00;99.90;;;;;;5030958;28;20418;-67
2023/07/14 06:58:06;;;;;;;7.20;3.42;;;27.00;99.90;;;;;;5018872;28;20129;-67
2023/07/14 07:00:33;;;;;;;8.30;3.15;;;27.20;99.90;;;;;;5032402;28;20048;-67
2023/07/14 07:03:00;;;;;;;6.13;3.25;;;27.20;99.90;;;;;;5034275;28;20558;-67
2023/07/14 07:05:26;;;;;;;6.18;3.30;;;27.10;99.90;;;;;;5019508;28;20041;-67
2023/07/14 07:07:53;;;;;;;8.70;3.80;;;27.20;99.90;;;;;;5031864;28;20398;-67
2023/07/14 07:10:19;;;;;;;8.38;5.38;;;27.20;99.90;;;;;;5034045;28;20078;-67
2023/07/14 07:12:45;;;;;;;10.63;9.35;;;27.20;99.90;;;;;;5032394;28;20021;-67
2023/07/14 07:15:10;;;;;;;7.68;6.40;;;27.10;1.00;;;;;;5033974;28;20022;-67
2023/07/14 07:17:39;;;;;;;5.38;4.05;;;27.20;99.90;;;;;;5032426;28;20434;-67
2023/07/14 07:20:09;;;;;;;7.88;6.25;;;27.30;99.90;;;;;;5033909;28;20087;-67
2023/07/14 07:22:36;;;;;;;5.97;4.28;;;27.20;1.00;;;;;;5032999;28;20029;-67
2023/07/14 07:25:02;;;;;;;5.95;4.43;;;27.20;99.90;;;;;;5033800;28;20041;-67
2023/07/14 07:27:28;;;;;;;10.23;4.68;;;27.10;1.00;;;;;;5031665;28;20496;-67
2023/07/14 07:29:54;;;;;;;5.38;3.58;;;27.10;1.00;;;;;;5029011;28;20108;-67
2023/07/14 07:32:20;;;;;;;4.63;3.67;;;27.10;1.00;;;;;;5029156;28;20024;-67
2023/07/14 07:34:46;;;;;;;5.80;3.83;;;27.10;99.90;;;;;;5033258;28;20508;-67
2023/07/14 07:37:12;;;;;;;5.32;3.38;;;27.30;99.90;;;;;;5032036;28;20017;-67
2023/07/14 07:39:38;;;;;;;5.10;3.63;;;27.20;99.90;;;;;;5028245;28;20057;-67
2023/07/14 07:42:04;;;;;;;7.30;4.22;;;27.20;99.90;;;;;;5030773;28;20056;-67
2023/07/14 07:44:31;;;;;;;7.55;4.40;;;27.40;99.90;;;;;;5032369;28;20040;-67
2023/07/14 07:46:57;;;;;;;4.43;4.03;;;27.50;99.90;;;;;;5033174;28;20036;-67
2023/07/14 07:49:22;;;;;;;5.68;3.72;;;27.30;99.90;;;;;;5031300;28;20034;-67
2023/07/14 07:51:48;;;;;;;8.68;4.90;;;27.20;1.00;;;;;;5031783;28;20040;-67
2023/07/14 07:54:14;;;;;;;5.97;4.25;;;27.00;1.00;;;;;;5031766;28;20108;-67
2023/07/14 07:56:42;;;;;;;5.97;4.97;;;27.10;1.00;;;;;;5031206;28;20025;-67
2023/07/14 07:59:10;;;;;;;6.25;5.00;;;27.10;1.00;;;;;;5022793;28;20092;-67
2023/07/14 08:01:35;;;;;;;8.57;5.25;;;27.20;1.00;;;;;;5032149;28;20152;-68
2023/07/14 08:04:01;;;;;;;6.15;5.55;;;27.10;1.00;;;;;;5031591;28;20061;-68
2023/07/14 08:06:28;;;;;;;7.20;5.85;;;27.10;1.00;;;;;;5031479;28;20114;-68
2023/07/14 08:08:54;;;;;;;7.55;5.75;;;27.00;1.00;;;;;;5025305;28;20026;-65
2023/07/14 08:11:20;;;;;;;7.95;5.97;;;27.00;1.00;;;;;;5027597;28;20033;-69
2023/07/14 08:13:46;;;;;;;9.52;6.18;;;26.90;1.00;;;;;;5026356;28;20029;-70
2023/07/14 08:16:12;;;;;;;7.10;5.88;;;26.90;1.00;;;;;;5029728;28;20096;-74
2023/07/14 08:18:38;;;;;;;10.65;6.35;;;26.80;1.00;;;;;;5029809;28;20084;-69
2023/07/14 08:21:04;;;;;;;9.27;6.05;;;26.80;1.00;;;;;;5031481;28;20036;-62
2023/07/14 08:23:29;;;;;;;9.10;7.03;;;26.70;1.00;;;;;;5031221;28;20472;-61
2023/07/14 08:25:58;;;;;;;9.93;6.63;;;26.70;1.00;;;;;;5032287;28;20364;-62
2023/07/14 08:28:24;;;;;;;9.70;6.70;;;26.60;1.00;;;;;;5032306;28;20029;-67
2023/07/14 08:30:53;;;;;;;8.75;6.63;;;26.50;1.00;;;;;;5031096;28;20021;-65
2023/07/14 08:33:19;;;;;;;10.57;7.25;;;26.40;1.00;;;;;;5030025;28;20057;-63
2023/07/14 08:35:48;;;;;;;9.15;7.20;;;26.50;1.00;;;;;;5031485;28;20040;-67
2023/07/14 08:38:14;;;;;;;7.90;7.10;;;26.40;1.00;;;;;;5029169;28;20034;-63
2023/07/14 08:40:53;;;;;;;8.98;7.32;;;26.10;1.00;;;;;;5031969;28;20033;-67
2023/07/14 08:43:21;;;;;;;7.95;6.80;;;25.70;1.00;;;;;;5031558;28;20021;-66
2023/07/14 08:45:56;;;;;;;10.90;7.60;;;25.70;1.00;;;;;;5027662;28;20380;-64
2023/07/14 08:48:24;;;;;;;11.77;8.65;;;25.60;1.00;;;;;;5031601;28;20026;-63
2023/07/14 08:50:55;;;;;;;17.77;10.32;;;25.30;1.00;;;;;;5029905;28;20029;-68
2023/07/14 08:53:25;;;;;;;30.35;13.38;;;23.80;1.00;;;;;;5030683;28;20044;-68
2023/07/14 08:55:58;;;;;;;77.20;51.35;;;23.50;99.90;;;;;;5028635;28;20113;-68
2023/07/14 08:58:27;;;;;;;37.00;23.65;;;24.00;99.90;;;;;;5031695;28;20418;-68
2023/07/14 09:00:53;;;;;;;25.20;17.00;;;24.10;99.90;;;;;;5027656;28;20040;-68
2023/07/14 09:03:37;;;;;;;28.52;18.67;;;23.90;99.90;;;;;;5030453;28;20029;-68
2023/07/14 09:06:17;;;;;;;22.13;17.15;;;23.70;99.90;;;;;;5030150;28;20065;-63
2023/07/14 09:08:44;;;;;;;24.17;15.70;;;23.50;99.90;;;;;;5032164;28;20035;-67
2023/07/14 09:11:46;;;;;;;24.70;12.88;;;23.30;99.90;;;;;;5028827;28;20029;-62
2023/07/14 09:14:47;;;;;;;21.75;11.85;;;22.90;99.90;;;;;;5032455;28;20036;-61
2023/07/14 09:17:36;;;;;;;18.45;11.02;;;22.70;99.90;;;;;;5015732;28;20041;-61
2023/07/14 09:20:18;;;;;;;18.20;12.13;;;22.90;99.90;;;;;;5027395;28;20116;-62
2023/07/14 09:23:00;;;;;;;19.98;13.45;;;23.00;99.90;;;;;;5019987;28;20133;-64
2023/07/14 09:25:29;;;;;;;17.65;13.50;;;23.00;99.90;;;;;;5024577;28;20120;-64
2023/07/14 09:27:55;;;;;;;15.07;11.88;;;23.20;99.90;;;;;;5031070;28;20503;-65
2023/07/14 09:30:23;;;;;;;17.50;15.10;;;22.90;99.90;;;;;;5054875;28;20030;-66
2023/07/14 09:32:54;;;;;;;32.00;14.50;;;23.20;99.90;;;;;;5031177;28;20099;-68
2023/07/14 09:35:25;;;;;;;49.30;15.38;;;22.90;99.90;;;;;;5027414;28;20026;-67
2023/07/14 09:38:05;;;;;;;20.15;12.50;;;22.70;99.90;;;;;;5027613;28;20040;-64
2023/07/14 09:40:33;;;;;;;30.25;14.50;;;22.90;99.90;;;;;;5032770;28;20467;-60
2023/07/14 09:43:01;;;;;;;13.80;12.18;;;22.80;99.90;;;;;;5028978;28;20053;-60
2023/07/14 09:45:35;;;;;;;16.17;14.07;;;22.80;99.90;;;;;;5037725;28;20037;-60
2023/07/14 09:48:30;;;;;;;21.33;14.63;;;22.90;99.90;;;;;;5030124;28;20042;-81
2023/07/14 09:51:16;;;;;;;16.58;14.68;;;22.50;99.90;;;;;;5033531;28;20053;-73
2023/07/14 09:53:59;;;;;;;18.10;12.50;;;22.40;99.90;;;;;;5035576;28;20037;-67
2023/07/14 09:56:29;;;;;;;11.82;10.65;;;22.40;99.90;;;;;;5036414;28;20052;-71
2023/07/14 09:59:04;;;;;;;14.00;10.95;;;22.40;99.90;;;;;;5037393;28;20044;-66
2023/07/14 10:01:30;;;;;;;13.32;10.75;;;22.60;99.90;;;;;;5033677;28;20034;-65
2023/07/14 10:04:12;;;;;;;11.82;10.38;;;22.70;99.90;;;;;;5031234;28;20432;-69
2023/07/14 10:06:37;;;;;;;10.40;9.25;;;22.70;99.90;;;;;;5028489;28;20079;-67
2023/07/14 10:09:10;;;;;;;10.18;9.20;;;22.60;99.90;;;;;;5031974;28;20037;-67
2023/07/14 10:11:44;;;;;;;9.43;8.40;;;22.70;99.90;;;;;;5030200;28;20061;-68
2023/07/14 10:14:35;;;;;;;9.45;8.45;;;22.40;99.90;;;;;;5033883;28;20025;-67
2023/07/14 10:17:01;;;;;;;7.85;7.03;;;22.70;99.90;;;;;;5033515;28;20051;-67
2023/07/14 10:19:41;;;;;;;9.68;6.22;;;22.50;99.90;;;;;;5034156;28;20416;-70
2023/07/14 10:22:09;;;;;;;8.48;6.95;;;22.40;99.90;;;;;;5031616;28;20045;-67
2023/07/14 10:24:37;;;;;;;8.32;6.57;;;22.50;99.90;;;;;;5031660;28;20560;-67
2023/07/14 10:27:15;;;;;;;9.18;6.22;;;22.20;99.90;;;;;;5036310;28;20032;-64
2023/07/14 10:29:53;;;;;;;8.32;7.50;;;22.20;99.90;;;;;;5034746;28;20029;-68
2023/07/14 10:32:31;;;;;;;9.70;7.03;;;22.70;99.90;;;;;;5031131;28;20379;-69
2023/07/14 10:35:18;;;;;;;7.57;6.88;;;22.40;99.90;;;;;;5028999;28;20029;-63
2023/07/14 10:37:48;;;;;;;9.80;8.25;;;22.80;99.90;;;;;;5030610;28;20037;-67
2023/07/14 10:40:19;;;;;;;10.98;9.13;;;22.80;99.90;;;;;;5033697;28;20108;-71
2023/07/14 10:43:16;;;;;;;8.55;7.28;;;22.70;99.90;;;;;;5045022;28;20052;-71
2023/07/14 10:45:47;;;;;;;9.05;8.15;;;22.90;99.90;;;;;;5036128;28;20552;-69
2023/07/14 10:48:38;;;;;;;9.88;7.55;;;22.90;99.90;;;;;;5034367;28;20041;-66
2023/07/14 10:51:10;;;;;;;7.75;6.95;;;22.80;99.90;;;;;;5029699;28;20025;-65
2023/07/14 10:53:41;;;;;;;8.60;7.72;;;23.00;99.90;;;;;;5033914;28;20553;-68
2023/07/14 10:56:34;;;;;;;8.85;7.95;;;22.80;99.90;;;;;;5030955;28;20033;-63
2023/07/14 10:59:13;;;;;;;9.13;7.20;;;22.70;99.90;;;;;;5027687;28;20053;-63
2023/07/14 11:01:41;;;;;;;9.93;6.88;;;22.60;99.90;;;;;;5028681;28;20037;-65
2023/07/14 11:04:23;;;;;;;7.93;7.13;;;22.90;99.90;;;;;;5030341;28;20039;-64
2023/07/14 11:06:52;;;;;;;7.78;6.78;;;23.50;99.90;;;;;;5031912;28;20033;-66
2023/07/14 11:09:19;;;;;;;9.07;7.35;;;23.50;99.90;;;;;;5033898;28;20045;-64
2023/07/14 11:12:00;;;;;;;7.40;6.72;;;24.00;99.90;;;;;;5030607;28;20502;-63
2023/07/14 11:14:41;;;;;;;8.32;7.00;;;24.10;99.90;;;;;;5034218;28;20030;-64
2023/07/14 11:17:23;;;;;;;8.57;6.47;;;24.40;99.90;;;;;;5034142;28;20017;-64
2023/07/14 11:20:13;;;;;;;10.07;7.25;;;24.70;99.90;;;;;;5028224;28;20033;-64
2023/07/14 11:23:05;;;;;;;7.65;6.55;;;25.00;99.90;;;;;;5033555;28;20051;-64
2023/07/14 11:25:38;;;;;;;8.07;6.97;;;25.10;99.90;;;;;;5032332;28;20120;-64
2023/07/14 11:28:34;;;;;;;8.23;7.30;;;25.40;99.90;;;;;;5033780;28;20021;-65
2023/07/14 11:31:03;;;;;;;8.45;6.85;;;25.50;99.90;;;;;;5035624;28;20105;-64
2023/07/14 11:33:41;;;;;;;6.93;6.25;;;25.60;99.90;;;;;;5033579;28;20036;-64
2023/07/14 11:36:15;;;;;;;8.10;7.32;;;26.00;99.90;;;;;;5029099;28;20628;-63
2023/07/14 11:39:04;;;;;;;8.98;7.75;;;26.60;10.10;;;;;;5030448;28;20025;-62
2023/07/14 11:41:32;;;;;;;7.55;6.82;;;27.10;1.00;;;;;;5025047;28;20084;-62
2023/07/14 11:44:01;;;;;;;11.65;8.02;;;27.70;1.00;;;;;;5031913;28;20480;-62
2023/07/14 11:46:28;;;;;;;10.23;8.02;;;27.80;1.00;;;;;;5025882;28;20037;-62
2023/07/14 11:48:53;;;;;;;7.93;6.75;;;28.30;1.00;;;;;;5037236;28;20021;-63
2023/07/14 11:51:21;;;;;;;9.75;7.75;;;28.50;1.00;;;;;;5036033;28;20033;-62
2023/07/14 11:54:12;;;;;;;7.97;6.47;;;28.40;1.00;;;;;;5031733;28;20401;-62
2023/07/14 11:56:40;;;;;;;9.88;7.68;;;28.50;1.00;;;;;;5027902;28;20623;-62
2023/07/14 11:59:25;;;;;;;11.80;7.22;;;28.10;1.00;;;;;;5024709;28;20073;-62
2023/07/14 12:01:56;;;;;;;9.02;7.50;;;27.80;1.00;;;;;;5032587;28;20033;-62
2023/07/14 12:04:25;;;;;;;8.20;6.75;;;27.90;1.00;;;;;;5030013;28;20103;-69
2023/07/14 12:07:09;;;;;;;9.55;7.47;;;28.10;1.00;;;;;;5030071;28;20442;-70
2023/07/14 12:09:54;;;;;;;9.02;6.95;;;28.80;1.00;;;;;;5043601;28;20398;-66
2023/07/14 12:12:19;;;;;;;7.95;6.55;;;28.70;1.00;;;;;;5026802;28;20337;-64
2023/07/14 12:14:48;;;;;;;10.30;8.15;;;28.50;1.00;;;;;;5028331;28;20025;-63
2023/07/14 12:17:41;;;;;;;8.65;7.20;;;28.60;1.00;;;;;;5026114;28;20074;-67
2023/07/14 12:20:13;;;;;;;8.15;6.10;;;28.60;1.00;;;;;;5031901;28;20506;-65
2023/07/14 12:23:06;;;;;;;7.43;6.32;;;28.60;1.00;;;;;;5034814;28;20048;-64
2023/07/14 12:25:40;;;;;;;8.05;6.53;;;28.50;1.00;;;;;;5035465;28;20108;-66
2023/07/14 12:28:11;;;;;;;;;;;28.40;1.00;;;;;;5031394;28;20034;-66
2023/07/14 12:30:37;;;;;;;7.93;7.00;;;28.30;1.00;;;;;;5031129;28;19940;-66
2023/07/14 12:33:11;;;;;;;9.18;6.43;;;28.10;1.00;;;;;;5030784;28;20048;-66
2023/07/14 12:35:37;;;;;;;6.68;6.07;;;28.20;1.00;;;;;;5032069;28;20029;-66
2023/07/14 12:38:16;;;;;;;8.80;6.38;;;28.50;1.00;;;;;;5029165;28;20548;-63
2023/07/14 12:40:43;;;;;;;8.02;7.22;;;28.50;1.00;;;;;;5031998;28;20028;-63
2023/07/14 12:43:39;;;;;;;13.20;6.45;;;29.70;1.00;;;;;;5031822;28;20052;-63
2023/07/14 12:46:22;;;;;;;7.90;5.90;;;31.50;1.00;;;;;;5017667;28;20049;-61
2023/07/14 12:48:49;;;;;;;5.65;5.03;;;32.00;1.00;;;;;;5026977;28;20026;-61
2023/07/14 12:51:21;;;;;;;8.52;4.50;;;31.90;1.00;;;;;;5029620;28;20021;-61
2023/07/14 12:54:04;;;;;;;5.18;4.55;;;31.90;1.00;;;;;;5031211;28;20026;-61
2023/07/14 12:56:31;;;;;;;4.97;4.50;;;31.80;1.00;;;;;;5024818;28;20033;-61
2023/07/14 12:59:01;;;;;;;7.53;4.65;;;31.70;1.00;;;;;;5029770;28;20048;-61
2023/07/14 13:01:28;;;;;;;6.65;4.22;;;32.10;1.00;;;;;;5027786;28;20022;-61
2023/07/14 13:03:53;;;;;;;5.25;4.47;;;32.00;1.00;;;;;;5030442;28;20110;-61
2023/07/14 13:06:23;;;;;;;5.18;4.63;;;32.40;1.00;;;;;;5029341;28;20081;-61
2023/07/14 13:08:51;;;;;;;5.10;4.28;;;32.60;1.00;;;;;;5032170;28;20064;-61
2023/07/14 13:11:22;;;;;;;5.75;4.90;;;33.30;1.00;;;;;;5030150;28;20014;-61